SCTE 170600Z 04004KT 9999 OVC020 14/11 Q1021 NOSIG